createdAt,value
2018-01-24T00:00:07.310Z,18.27
2018-01-24T00:02:34.961Z,15.60
2018-01-24T00:05:03.315Z,14.90
2018-01-24T00:07:30.919Z,14.80
2018-01-24T00:09:58.488Z,15.40
2018-01-24T00:12:26.097Z,13.50
2018-01-24T00:14:53.666Z,14.07
2018-01-24T00:17:22.046Z,13.67
2018-01-24T00:19:50.428Z,14.53
2018-01-24T00:22:18.829Z,14.30
2018-01-24T00:24:46.437Z,14.03
2018-01-24T00:27:14.055Z,14.00
2018-01-24T00:29:41.652Z,13.57
2018-01-24T00:32:10.009Z,14.63
2018-01-24T00:34:37.602Z,13.27
2018-01-24T00:37:05.192Z,14.03
2018-01-24T00:39:33.646Z,12.83
2018-01-24T00:42:02.010Z,12.20
2018-01-24T00:44:29.780Z,9.53
2018-01-24T00:46:58.139Z,10.13
2018-01-24T00:49:25.730Z,9.37
2018-01-24T00:51:53.328Z,9.37
2018-01-24T00:54:20.926Z,8.03
2018-01-24T00:56:48.539Z,8.70
2018-01-24T00:59:16.880Z,8.43
2018-01-24T01:01:44.486Z,8.93
2018-01-24T01:04:12.066Z,9.63
2018-01-24T01:06:39.665Z,8.30
2018-01-24T01:09:07.262Z,7.67
2018-01-24T01:11:34.876Z,7.73
2018-01-24T01:14:02.456Z,7.93
2018-01-24T01:16:30.041Z,8.10
2018-01-24T01:18:57.648Z,7.50
2018-01-24T01:21:25.278Z,6.87
2018-01-24T01:23:52.872Z,6.73
2018-01-24T01:26:20.476Z,7.07
2018-01-24T01:28:48.077Z,6.63
2018-01-24T01:31:15.668Z,6.93
2018-01-24T01:33:43.256Z,5.93
2018-01-24T01:36:11.633Z,7.20
2018-01-24T01:38:40.209Z,6.30
2018-01-24T01:41:08.558Z,6.17
2018-01-24T01:43:36.146Z,6.47
2018-01-24T01:46:03.781Z,7.27
2018-01-24T01:48:32.179Z,6.53
2018-01-24T01:51:00.409Z,6.97
2018-01-24T01:53:28.016Z,6.07
2018-01-24T01:55:55.626Z,6.80
2018-01-24T01:58:23.388Z,6.00
2018-01-24T02:00:50.976Z,6.50
2018-01-24T02:03:18.645Z,6.17
2018-01-24T02:05:46.233Z,5.97
2018-01-24T02:08:14.579Z,6.73
2018-01-24T02:10:42.176Z,6.87
2018-01-24T02:13:10.678Z,7.20
2018-01-24T02:15:38.592Z,6.23
2018-01-24T02:18:06.225Z,6.03
2018-01-24T02:20:33.803Z,6.43
2018-01-24T02:23:01.398Z,6.73
2018-01-24T02:25:29.757Z,6.80
2018-01-24T02:27:57.372Z,7.93
2018-01-24T02:30:24.942Z,8.73
2018-01-24T02:32:52.557Z,7.00
2018-01-24T02:35:20.904Z,7.37
2018-01-24T02:37:48.485Z,7.13
2018-01-24T02:40:16.135Z,6.97
2018-01-24T02:42:43.733Z,7.53
2018-01-24T02:45:11.325Z,6.87
2018-01-24T02:47:38.917Z,7.40
2018-01-24T02:50:06.572Z,7.67
2018-01-24T02:52:34.152Z,6.33
2018-01-24T02:55:01.752Z,7.37
2018-01-24T02:57:29.329Z,7.57
2018-01-24T02:59:56.938Z,6.97
2018-01-24T03:02:25.558Z,7.77
2018-01-24T03:04:53.153Z,7.40
2018-01-24T03:07:20.753Z,8.13
2018-01-24T03:09:49.113Z,7.60
2018-01-24T03:12:17.524Z,6.73
2018-01-24T03:14:45.201Z,8.63
2018-01-24T03:17:12.801Z,7.87
2018-01-24T03:19:40.372Z,8.10
2018-01-24T03:22:07.965Z,7.83
2018-01-24T03:24:35.534Z,8.30
2018-01-24T03:27:03.120Z,8.20
2018-01-24T03:29:30.716Z,7.73
2018-01-24T03:31:59.076Z,7.83
2018-01-24T03:34:26.670Z,7.63
2018-01-24T03:36:55.046Z,8.90
2018-01-24T03:39:23.421Z,8.10
2018-01-24T03:41:51.829Z,7.20
2018-01-24T03:44:19.434Z,7.53
2018-01-24T03:46:47.025Z,8.13
2018-01-24T03:49:15.381Z,7.30
2018-01-24T03:51:42.956Z,8.43
2018-01-24T03:54:10.549Z,8.93
2018-01-24T03:56:38.172Z,8.03
2018-01-24T03:59:06.530Z,7.67
2018-01-24T04:01:34.110Z,7.70
2018-01-24T04:04:02.473Z,7.67
2018-01-24T04:06:30.045Z,6.67
2018-01-24T04:08:58.541Z,7.17
2018-01-24T04:11:26.979Z,7.20
2018-01-24T04:13:54.554Z,6.73
2018-01-24T04:16:22.145Z,7.40
2018-01-24T04:18:50.485Z,7.13
2018-01-24T04:21:18.081Z,6.03
2018-01-24T04:23:46.416Z,7.00
2018-01-24T04:26:14.025Z,8.00
2018-01-24T04:28:41.632Z,7.13
2018-01-24T04:31:09.219Z,7.47
2018-01-24T04:33:36.808Z,7.70
2018-01-24T04:36:04.384Z,7.80
2018-01-24T04:38:31.993Z,7.90
2018-01-24T04:40:59.584Z,8.97
2018-01-24T04:43:27.258Z,8.80
2018-01-24T04:45:54.845Z,8.70
2018-01-24T04:48:22.438Z,8.80
2018-01-24T04:50:50.019Z,9.33
2018-01-24T04:53:18.419Z,8.67
2018-01-24T04:55:46.013Z,9.23
2018-01-24T04:58:13.602Z,9.13
2018-01-24T05:00:41.182Z,9.23
2018-01-24T05:03:09.550Z,9.53
2018-01-24T05:05:37.953Z,10.23
2018-01-24T05:08:05.549Z,10.10
2018-01-24T05:10:33.129Z,10.93
2018-01-24T05:13:00.748Z,12.20
2018-01-24T05:15:28.338Z,11.83
2018-01-24T05:17:55.951Z,11.70
2018-01-24T05:20:30.141Z,11.03
2018-01-24T05:22:58.533Z,12.60
2018-01-24T05:25:26.116Z,11.87
2018-01-24T05:27:53.776Z,14.53
2018-01-24T05:30:21.368Z,14.33
2018-01-24T05:32:48.947Z,15.20
2018-01-24T05:35:16.569Z,15.90
2018-01-24T05:37:44.161Z,13.57
2018-01-24T05:40:11.776Z,15.90
2018-01-24T05:42:39.364Z,13.80
2018-01-24T05:45:06.965Z,14.57
2018-01-24T05:47:35.324Z,12.77
2018-01-24T05:50:02.884Z,14.03
2018-01-24T05:52:30.492Z,14.20
2018-01-24T05:54:58.111Z,14.27
2018-01-24T05:57:25.769Z,14.33
2018-01-24T05:59:53.349Z,15.10
2018-01-24T06:02:21.725Z,16.13
2018-01-24T06:04:50.099Z,17.03
2018-01-24T06:07:17.689Z,15.00
2018-01-24T06:09:45.276Z,15.20
2018-01-24T06:12:12.885Z,15.87
2018-01-24T06:14:41.235Z,14.97
2018-01-24T06:17:08.855Z,15.50
2018-01-24T06:19:36.477Z,17.10
2018-01-24T06:22:04.058Z,16.20
2018-01-24T06:24:31.732Z,15.77
2018-01-24T06:26:59.313Z,17.17
2018-01-24T06:29:26.925Z,16.37
2018-01-24T06:31:54.625Z,16.03
2018-01-24T06:34:22.349Z,16.30
2018-01-24T06:36:50.713Z,16.67
2018-01-24T06:39:18.393Z,15.90
2018-01-24T06:41:46.746Z,17.90
2018-01-24T06:44:14.409Z,17.33
2018-01-24T06:46:42.015Z,17.23
2018-01-24T06:49:09.625Z,17.07
2018-01-24T06:51:37.220Z,17.47
2018-01-24T06:54:05.577Z,17.97
2018-01-24T06:56:33.180Z,16.60
2018-01-24T06:59:00.924Z,16.43
2018-01-24T07:01:29.288Z,17.20
2018-01-24T07:03:57.631Z,16.93
2018-01-24T07:06:25.246Z,17.73
2018-01-24T07:08:52.838Z,16.53
2018-01-24T07:11:20.432Z,18.17
2018-01-24T07:14:00.165Z,17.97
2018-01-24T07:16:27.797Z,17.50
2018-01-24T07:18:55.368Z,18.33
2018-01-24T07:21:22.973Z,17.70
2018-01-24T07:23:51.316Z,20.80
2018-01-24T07:26:18.945Z,22.00
2018-01-24T07:28:46.519Z,20.00
2018-01-24T07:31:14.114Z,20.87
2018-01-24T07:33:41.744Z,19.43
2018-01-24T07:36:09.328Z,18.93
2018-01-24T07:38:36.932Z,18.70
2018-01-24T07:41:04.517Z,18.80
2018-01-24T07:43:32.124Z,17.97
2018-01-24T07:45:59.708Z,18.93
2018-01-24T07:48:28.077Z,17.97
2018-01-24T07:50:56.425Z,18.90
2018-01-24T07:53:24.089Z,18.27
2018-01-24T07:55:51.694Z,18.40
2018-01-24T07:58:19.288Z,19.27
2018-01-24T08:00:46.883Z,16.97
2018-01-24T08:03:14.511Z,17.33
2018-01-24T08:05:42.105Z,19.37
2018-01-24T08:08:09.677Z,16.90
2018-01-24T08:10:38.057Z,22.03
2018-01-24T08:13:06.465Z,26.67
2018-01-24T08:15:34.068Z,24.53
2018-01-24T08:18:01.701Z,21.90
2018-01-24T08:20:29.289Z,19.70
2018-01-24T08:22:56.883Z,19.53
2018-01-24T08:25:25.246Z,17.17
2018-01-24T08:27:53.598Z,17.00
2018-01-24T08:30:22.307Z,16.93
2018-01-24T08:32:49.909Z,15.83
2018-01-24T08:35:17.485Z,16.70
2018-01-24T08:37:45.205Z,17.60
2018-01-24T08:40:13.549Z,17.17
2018-01-24T08:42:41.220Z,17.00
2018-01-24T08:45:08.802Z,17.30
2018-01-24T08:47:37.164Z,15.70
2018-01-24T08:50:04.733Z,15.80
2018-01-24T08:52:33.101Z,15.53
2018-01-24T08:55:00.672Z,16.57
2018-01-24T08:57:29.034Z,16.23
2018-01-24T08:59:56.661Z,15.30
2018-01-24T09:02:24.245Z,15.97
2018-01-24T09:04:51.846Z,14.17
2018-01-24T09:07:20.284Z,15.27
2018-01-24T09:09:48.434Z,14.87
2018-01-24T09:12:16.036Z,15.63
2018-01-24T09:14:43.623Z,14.80
2018-01-24T09:17:11.249Z,14.23
2018-01-24T09:19:38.828Z,14.30
2018-01-24T09:22:07.197Z,15.57
2018-01-24T09:24:34.777Z,14.87
2018-01-24T09:27:03.141Z,14.20
2018-01-24T09:29:31.807Z,13.33
2018-01-24T09:31:59.413Z,12.63
2018-01-24T09:34:27.017Z,12.77
2018-01-24T09:36:54.631Z,12.93
2018-01-24T09:39:22.536Z,12.07
2018-01-24T09:41:50.336Z,12.93
2018-01-24T09:44:18.852Z,12.33
2018-01-24T09:46:46.453Z,12.43
2018-01-24T09:49:14.033Z,11.97
2018-01-24T09:51:41.773Z,11.23
2018-01-24T09:54:09.356Z,11.73
2018-01-24T09:56:37.701Z,11.80
2018-01-24T09:59:05.303Z,11.73
2018-01-24T10:01:33.961Z,10.77
2018-01-24T10:04:02.381Z,11.23
2018-01-24T10:06:30.737Z,10.80
2018-01-24T10:08:58.341Z,11.27
2018-01-24T10:11:25.940Z,10.67
2018-01-24T10:13:53.541Z,11.63
2018-01-24T10:16:21.908Z,11.00
2018-01-24T10:18:49.493Z,11.20
2018-01-24T10:21:17.109Z,10.87
2018-01-24T10:23:44.761Z,10.47
2018-01-24T10:26:12.382Z,12.07
2018-01-24T10:28:39.952Z,11.97
2018-01-24T10:31:07.553Z,11.70
2018-01-24T10:33:35.222Z,11.80
2018-01-24T10:36:02.837Z,11.77
2018-01-24T10:38:30.422Z,11.67
2018-01-24T10:40:58.064Z,9.90
2018-01-24T10:43:25.643Z,10.27
2018-01-24T10:45:54.805Z,10.37
2018-01-24T10:48:22.547Z,11.43
2018-01-24T10:50:50.148Z,10.83
2018-01-24T10:53:17.738Z,11.10
2018-01-24T10:55:45.353Z,10.93
2018-01-24T10:58:12.974Z,10.87
2018-01-24T11:00:41.321Z,10.87
2018-01-24T11:03:09.049Z,10.43
2018-01-24T11:05:36.649Z,9.33
2018-01-24T11:08:04.213Z,9.90
2018-01-24T11:10:31.826Z,9.03
2018-01-24T11:12:59.465Z,8.67
2018-01-24T11:15:27.804Z,8.43
2018-01-24T11:17:55.409Z,8.97
2018-01-24T11:20:23.024Z,8.47
2018-01-24T11:22:50.853Z,8.13
2018-01-24T11:25:18.427Z,9.63
2018-01-24T11:27:46.029Z,8.40
2018-01-24T11:30:13.606Z,8.10
2018-01-24T11:32:41.970Z,8.23
2018-01-24T11:35:09.549Z,7.67
2018-01-24T11:37:37.966Z,7.73
2018-01-24T11:40:05.552Z,7.60
2018-01-24T11:42:33.161Z,7.40
2018-01-24T11:45:00.828Z,7.23
2018-01-24T11:50:01.634Z,6.70
2018-01-24T11:52:29.365Z,7.03
2018-01-24T11:54:57.036Z,6.67
2018-01-24T11:57:24.609Z,6.17
2018-01-24T11:59:52.196Z,6.57
2018-01-24T12:02:20.546Z,6.73
2018-01-24T12:04:48.909Z,6.23
2018-01-24T12:07:16.481Z,6.10
2018-01-24T12:09:44.073Z,5.60
2018-01-24T12:12:12.417Z,5.77
2018-01-24T12:14:39.996Z,5.30
2018-01-24T12:17:07.928Z,6.43
2018-01-24T12:19:35.566Z,5.30
2018-01-24T12:22:03.163Z,6.20
2018-01-24T12:24:30.762Z,5.73
2018-01-24T12:26:59.117Z,5.63
2018-01-24T12:29:26.706Z,6.70
2018-01-24T12:31:55.069Z,6.37
2018-01-24T12:34:23.410Z,8.20
2018-01-24T12:36:50.998Z,5.77
2018-01-24T12:39:18.612Z,6.53
2018-01-24T12:41:46.201Z,5.87
2018-01-24T12:44:13.800Z,6.40
2018-01-24T12:46:42.153Z,7.17
2018-01-24T12:49:09.745Z,7.07
2018-01-24T12:51:38.092Z,8.90
2018-01-24T12:54:05.700Z,6.97
2018-01-24T12:56:33.341Z,7.33
2018-01-24T12:59:00.953Z,7.70
2018-01-24T13:01:28.647Z,7.97
2018-01-24T13:03:57.111Z,7.90
2018-01-24T13:06:24.726Z,7.57
2018-01-24T13:08:52.304Z,6.60
2018-01-24T13:11:21.437Z,5.73
2018-01-24T13:13:49.018Z,5.43
2018-01-24T13:16:17.380Z,6.10
2018-01-24T13:18:45.054Z,6.20
2018-01-24T13:21:13.667Z,6.30
2018-01-24T13:23:41.244Z,6.60
2018-01-24T13:26:08.834Z,6.43
2018-01-24T13:28:36.505Z,6.00
2018-01-24T13:31:04.080Z,6.13
2018-01-24T13:33:33.269Z,6.07
2018-01-24T13:36:01.609Z,6.03
2018-01-24T13:38:29.200Z,5.67
2018-01-24T13:40:56.792Z,4.87
2018-01-24T13:43:24.429Z,4.80
2018-01-24T13:45:52.781Z,4.97
2018-01-24T13:48:20.350Z,4.07
2018-01-24T13:50:47.947Z,4.57
2018-01-24T13:53:15.527Z,4.60
2018-01-24T13:55:43.127Z,5.60
2018-01-24T13:58:10.700Z,5.43
2018-01-24T14:00:39.122Z,4.90
2018-01-24T14:03:06.702Z,4.20
2018-01-24T14:05:34.297Z,4.93
2018-01-24T14:08:01.872Z,4.40
2018-01-24T14:10:30.800Z,4.50
2018-01-24T14:12:58.413Z,4.67
2018-01-24T14:15:26.044Z,4.90
2018-01-24T14:17:53.655Z,4.97
2018-01-24T14:20:22.002Z,3.80
2018-01-24T14:22:49.576Z,4.13
2018-01-24T14:25:17.940Z,4.87
2018-01-24T14:27:45.535Z,4.20
2018-01-24T14:30:13.143Z,4.60
2018-01-24T14:32:40.771Z,4.57
2018-01-24T14:35:08.364Z,4.37
2018-01-24T14:37:35.957Z,4.20
2018-01-24T14:40:04.306Z,4.30
2018-01-24T14:42:32.097Z,4.10
2018-01-24T14:45:00.537Z,5.70
2018-01-24T14:47:28.423Z,3.90
2018-01-24T14:49:56.021Z,4.07
2018-01-24T14:52:23.985Z,4.63
2018-01-24T14:54:52.350Z,4.67
2018-01-24T14:57:20.684Z,7.70
2018-01-24T14:59:48.269Z,11.57
2018-01-24T15:02:17.410Z,6.17
2018-01-24T15:04:45.748Z,10.10
2018-01-24T15:07:13.361Z,5.83
2018-01-24T15:09:42.308Z,12.17
2018-01-24T15:12:09.910Z,14.67
2018-01-24T15:14:37.492Z,21.23
2018-01-24T15:17:05.068Z,15.37
2018-01-24T15:19:32.669Z,14.70
2018-01-24T15:22:00.354Z,8.77
2018-01-24T15:24:27.953Z,9.43
2018-01-24T15:26:55.573Z,7.77
2018-01-24T15:29:23.152Z,7.03
2018-01-24T15:31:50.733Z,8.97
2018-01-24T15:34:18.418Z,8.97
2018-01-24T15:36:46.814Z,11.47
2018-01-24T15:39:15.177Z,11.73
2018-01-24T15:41:43.513Z,12.60
2018-01-24T15:44:11.892Z,12.17
2018-01-24T15:46:39.525Z,10.63
2018-01-24T15:49:07.125Z,10.13
2018-01-24T15:51:34.701Z,8.97
2018-01-24T15:54:02.344Z,8.10
2018-01-24T15:56:30.692Z,8.30
2018-01-24T15:58:58.302Z,9.80
2018-01-24T16:01:25.894Z,9.27
2018-01-24T16:03:53.508Z,8.27
2018-01-24T16:06:21.100Z,8.77
2018-01-24T16:08:49.492Z,8.23
2018-01-24T16:11:17.856Z,8.80
2018-01-24T16:13:46.200Z,7.93
2018-01-24T16:16:13.802Z,7.73
2018-01-24T16:18:42.937Z,8.27
2018-01-24T16:21:10.546Z,8.57
2018-01-24T16:23:38.133Z,10.87
2018-01-24T16:26:05.716Z,11.83
2018-01-24T16:28:33.324Z,12.47
2018-01-24T16:31:00.924Z,16.17
2018-01-24T16:33:28.529Z,18.77
2018-01-24T16:35:56.109Z,17.50
2018-01-24T16:38:24.477Z,19.40
2018-01-24T16:40:52.158Z,20.77
2018-01-24T16:43:20.525Z,17.27
2018-01-24T16:45:48.918Z,17.73
2018-01-24T16:48:16.514Z,15.37
2018-01-24T16:50:44.158Z,18.60
2018-01-24T16:53:11.745Z,26.77
2018-01-24T16:55:39.349Z,28.30
2018-01-24T16:58:07.830Z,28.80
2018-01-24T17:00:36.253Z,29.97
2018-01-24T17:03:04.640Z,20.53
2018-01-24T17:05:32.240Z,16.73
2018-01-24T17:07:59.949Z,18.67
2018-01-24T17:10:27.542Z,19.00
2018-01-24T17:12:55.164Z,16.57
2018-01-24T17:15:22.754Z,17.37
2018-01-24T17:17:50.365Z,19.57
2018-01-24T17:20:17.953Z,29.37
2018-01-24T17:22:45.585Z,27.80
2018-01-24T17:25:13.936Z,25.50
2018-01-24T17:27:41.510Z,16.70
2018-01-24T17:30:09.923Z,14.80
2018-01-24T17:32:37.513Z,11.43
2018-01-24T17:35:05.146Z,7.57
2018-01-24T17:37:32.746Z,7.50
2018-01-24T17:40:00.356Z,9.83
2018-01-24T17:42:27.940Z,11.63
2018-01-24T17:44:55.550Z,14.30
2018-01-24T17:47:23.910Z,32.90
2018-01-24T17:49:51.521Z,56.23
2018-01-24T17:52:19.176Z,41.87
2018-01-24T17:54:46.767Z,13.90
2018-01-24T17:57:14.408Z,12.27
2018-01-24T17:59:43.224Z,9.63
2018-01-24T18:02:10.809Z,12.50
2018-01-24T18:04:38.520Z,14.67
2018-01-24T18:07:06.100Z,13.83
2018-01-24T18:09:33.796Z,14.97
2018-01-24T18:12:01.401Z,14.83
2018-01-24T18:14:29.001Z,16.13
2018-01-24T18:16:56.609Z,20.97
2018-01-24T18:19:24.215Z,23.17
2018-01-24T18:21:51.821Z,20.50
2018-01-24T18:24:20.224Z,20.17
2018-01-24T18:26:48.192Z,19.63
2018-01-24T18:29:15.834Z,18.70
2018-01-24T18:31:44.233Z,19.43
2018-01-24T18:34:11.890Z,20.30
2018-01-24T18:36:39.516Z,18.10
2018-01-24T18:39:07.874Z,16.40
2018-01-24T18:41:35.474Z,14.47
2018-01-24T18:44:04.074Z,11.10
2018-01-24T18:46:32.413Z,6.50
2018-01-24T18:49:00.015Z,7.03
2018-01-24T18:51:27.730Z,6.90
2018-01-24T18:53:55.323Z,7.13
2018-01-24T18:56:22.937Z,8.73
2018-01-24T18:58:50.518Z,10.60
2018-01-24T19:01:18.904Z,12.97
2018-01-24T19:03:47.261Z,15.60
2018-01-24T19:06:14.940Z,16.83
2018-01-24T19:08:43.446Z,18.60
2018-01-24T19:11:11.034Z,21.00
2018-01-24T19:13:38.644Z,22.90
2018-01-24T19:16:07.010Z,26.83
2018-01-24T19:18:34.617Z,29.67
2018-01-24T19:21:02.250Z,28.57
2018-01-24T19:23:30.630Z,29.93
2018-01-24T19:25:58.977Z,26.53
2018-01-24T19:28:26.568Z,19.23
2018-01-24T19:30:54.971Z,12.27
2018-01-24T19:33:22.572Z,11.53
2018-01-24T19:35:50.199Z,11.50
2018-01-24T19:38:17.784Z,13.13
2018-01-24T19:40:45.394Z,13.33
2018-01-24T19:43:13.757Z,14.63
2018-01-24T19:45:42.222Z,15.07
2018-01-24T19:48:09.830Z,21.30
2018-01-24T19:50:37.413Z,19.17
2018-01-24T19:53:05.015Z,17.73
2018-01-24T19:55:33.382Z,14.87
2018-01-24T19:58:00.977Z,14.13
2018-01-24T20:00:28.571Z,12.97
2018-01-24T20:02:56.213Z,8.13
2018-01-24T20:05:23.813Z,12.00
2018-01-24T20:07:51.418Z,10.80
2018-01-24T20:10:19.809Z,10.03
2018-01-24T20:12:47.402Z,10.93
2018-01-24T20:15:15.004Z,11.53
2018-01-24T20:17:43.373Z,12.47
2018-01-24T20:20:10.981Z,12.90
2018-01-24T20:22:39.553Z,12.80
2018-01-24T20:25:07.148Z,13.97
2018-01-24T20:27:34.724Z,12.40
2018-01-24T20:30:02.335Z,12.60
2018-01-24T20:32:29.914Z,13.20
2018-01-24T20:34:57.520Z,13.10
2018-01-24T20:37:25.901Z,14.33
2018-01-24T20:39:54.273Z,17.07
2018-01-24T20:42:21.865Z,18.47
2018-01-24T20:44:49.487Z,19.50
2018-01-24T20:47:17.084Z,16.97
2018-01-24T20:49:44.688Z,16.50
2018-01-24T20:52:12.332Z,15.57
2018-01-24T20:54:39.920Z,17.03
2018-01-24T20:57:07.519Z,17.83
2018-01-24T20:59:35.128Z,15.67
2018-01-24T21:02:02.724Z,15.80
2018-01-24T21:04:31.145Z,15.20
2018-01-24T21:06:58.756Z,16.73
2018-01-24T21:09:26.347Z,17.03
2018-01-24T21:11:53.959Z,17.90
2018-01-24T21:14:21.565Z,18.17
2018-01-24T21:16:49.170Z,18.97
2018-01-24T21:19:16.785Z,17.90
2018-01-24T21:21:44.391Z,18.47
2018-01-24T21:24:12.016Z,19.43
2018-01-24T21:26:39.654Z,19.17
2018-01-24T21:29:29.695Z,21.87
2018-01-24T21:32:09.899Z,22.43
2018-01-24T21:34:50.074Z,22.80
2018-01-24T21:37:17.708Z,21.00
2018-01-24T21:39:46.071Z,19.63
2018-01-24T21:42:13.760Z,19.67
2018-01-24T21:44:42.131Z,20.83
2018-01-24T21:47:10.498Z,19.60
2018-01-24T21:49:38.097Z,20.57
2018-01-24T21:52:06.450Z,20.23
2018-01-24T21:54:34.793Z,18.80
2018-01-24T21:57:02.385Z,15.40
2018-01-24T21:59:30.745Z,17.63
2018-01-24T22:01:58.352Z,17.53
2018-01-24T22:04:25.989Z,16.40
2018-01-24T22:06:54.437Z,14.90
2018-01-24T22:09:22.058Z,22.27
2018-01-24T22:11:49.673Z,24.30
2018-01-24T22:14:18.041Z,15.77
2018-01-24T22:16:45.668Z,15.87
2018-01-24T22:19:13.285Z,14.83
2018-01-24T22:21:41.652Z,15.00
2018-01-24T22:24:09.276Z,16.57
2018-01-24T22:26:36.894Z,15.63
2018-01-24T22:29:04.510Z,16.97
2018-01-24T22:31:32.172Z,16.70
2018-01-24T22:33:59.781Z,18.87
2018-01-24T22:36:27.375Z,22.47
2018-01-24T22:38:54.959Z,14.13
2018-01-24T22:41:22.541Z,16.10
2018-01-24T22:43:50.916Z,16.40
2018-01-24T22:46:19.298Z,15.20
2018-01-24T22:48:47.644Z,14.30
2018-01-24T22:51:20.913Z,15.13
2018-01-24T22:53:48.519Z,15.37
2018-01-24T22:56:16.130Z,15.93
2018-01-24T22:58:43.707Z,15.67
2018-01-24T23:01:11.316Z,14.47
2018-01-24T23:03:39.669Z,15.93
2018-01-24T23:06:07.282Z,14.73
2018-01-24T23:08:34.858Z,16.27
2018-01-24T23:11:02.464Z,15.07
2018-01-24T23:13:30.817Z,16.23
2018-01-24T23:15:58.422Z,14.73
2018-01-24T23:18:26.126Z,14.47
2018-01-24T23:20:53.728Z,15.33
2018-01-24T23:23:22.102Z,15.00
2018-01-24T23:25:50.444Z,14.00
2018-01-24T23:28:18.122Z,13.07
2018-01-24T23:30:45.705Z,13.40
2018-01-24T23:33:13.314Z,14.00
2018-01-24T23:35:40.966Z,12.67
2018-01-24T23:38:08.569Z,12.13
2018-01-24T23:40:36.157Z,11.83
2018-01-24T23:43:04.565Z,11.80
2018-01-24T23:45:32.173Z,12.00
2018-01-24T23:47:59.792Z,11.57
2018-01-24T23:50:27.400Z,11.47
2018-01-24T23:52:54.972Z,10.33
2018-01-24T23:55:23.333Z,10.57
2018-01-24T23:57:50.944Z,11.03
